createdAt,value
2022-10-31T00:00:26.932Z,77.70
2022-10-31T00:04:28.548Z,78.42
2022-10-31T00:08:31.319Z,78.82
2022-10-31T00:12:32.950Z,79.18
2022-10-31T00:16:34.427Z,78.95
2022-10-31T00:20:36.015Z,78.96
2022-10-31T00:24:38.819Z,79.27
2022-10-31T00:28:40.402Z,79.31
2022-10-31T00:32:41.833Z,79.51
2022-10-31T00:36:43.243Z,79.90
2022-10-31T00:40:45.988Z,78.12
2022-10-31T00:44:47.371Z,79.57
2022-10-31T00:48:48.932Z,79.70
2022-10-31T00:52:50.524Z,79.89
2022-10-31T00:56:53.290Z,79.31
2022-10-31T01:00:54.860Z,79.17
2022-10-31T01:04:56.272Z,79.76
2022-10-31T01:08:57.852Z,79.68
2022-10-31T01:13:00.995Z,79.19
2022-10-31T01:17:02.660Z,80.47
2022-10-31T01:21:06.127Z,80.77
2022-10-31T01:25:09.735Z,80.32
2022-10-31T01:29:12.512Z,79.17
2022-10-31T01:33:13.927Z,80.26
2022-10-31T01:37:15.467Z,80.26
2022-10-31T01:41:18.856Z,79.88
2022-10-31T01:45:22.215Z,80.29
2022-10-31T01:49:34.963Z,80.37
2022-10-31T01:53:37.081Z,80.77
2022-10-31T01:57:43.083Z,80.45
2022-10-31T02:01:47.298Z,81.04
2022-10-31T02:05:50.159Z,80.73
2022-10-31T02:09:53.888Z,81.03
2022-10-31T02:13:55.632Z,80.93
2022-10-31T02:18:00.386Z,81.44
2022-10-31T02:22:10.715Z,81.56
2022-10-31T02:26:31.303Z,82.04
2022-10-31T02:30:41.343Z,81.71
2022-10-31T02:34:52.523Z,82.37
2022-10-31T02:39:11.394Z,82.52
2022-10-31T02:43:19.497Z,82.14
2022-10-31T02:47:25.251Z,82.52
2022-10-31T02:51:28.275Z,82.75
2022-10-31T02:55:50.287Z,82.24
2022-10-31T02:59:57.199Z,83.01
2022-10-31T03:04:13.443Z,83.28
2022-10-31T03:08:23.460Z,83.87
2022-10-31T03:12:30.574Z,82.97
2022-10-31T03:16:40.840Z,83.01
2022-10-31T03:20:47.472Z,83.68
2022-10-31T03:24:52.754Z,84.06
2022-10-31T03:28:58.220Z,83.31
2022-10-31T03:33:04.069Z,82.96
2022-10-31T03:37:09.675Z,83.78
2022-10-31T03:41:19.155Z,83.68
2022-10-31T03:45:25.486Z,84.38
2022-10-31T03:49:28.228Z,84.39
2022-10-31T03:53:34.996Z,83.80
2022-10-31T03:57:42.292Z,83.85
2022-10-31T04:01:49.902Z,84.00
2022-10-31T04:05:55.866Z,84.13
2022-10-31T04:10:00.176Z,84.41
2022-10-31T04:14:05.603Z,84.78
2022-10-31T04:18:07.201Z,85.25
2022-10-31T04:22:08.851Z,85.34
2022-10-31T04:26:12.699Z,85.46
2022-10-31T04:30:15.600Z,85.93
2022-10-31T04:34:18.334Z,84.83
2022-10-31T04:38:20.199Z,84.99
2022-10-31T04:42:21.591Z,85.10
2022-10-31T04:46:24.403Z,83.70
2022-10-31T04:50:25.915Z,83.52
2022-10-31T04:54:27.438Z,82.93
2022-10-31T04:58:29.215Z,82.92
2022-10-31T05:02:32.093Z,83.15
2022-10-31T05:06:34.735Z,83.24
2022-10-31T05:10:36.215Z,82.94
2022-10-31T05:14:38.364Z,83.22
2022-10-31T05:18:41.109Z,82.91
2022-10-31T05:22:43.471Z,83.40
2022-10-31T05:26:46.063Z,83.40
2022-10-31T05:30:48.545Z,82.96
2022-10-31T05:34:53.762Z,83.66
2022-10-31T05:38:55.128Z,83.38
2022-10-31T05:42:58.327Z,84.08
2022-10-31T05:47:00.147Z,84.00
2022-10-31T05:51:02.987Z,84.22
2022-10-31T05:55:05.146Z,84.54
2022-10-31T05:59:06.556Z,84.85
2022-10-31T06:07:17.407Z,84.49
2022-10-31T06:11:18.811Z,85.04
2022-10-31T06:15:24.040Z,85.22
2022-10-31T06:19:26.179Z,85.48
2022-10-31T06:23:29.035Z,85.57
2022-10-31T06:27:30.576Z,85.70
2022-10-31T06:31:32.080Z,85.39
2022-10-31T06:35:33.635Z,85.05
2022-10-31T06:39:36.588Z,85.91
2022-10-31T06:43:38.089Z,84.98
2022-10-31T06:47:56.672Z,84.78
2022-10-31T06:52:01.173Z,85.05
2022-10-31T06:56:04.273Z,84.61
2022-10-31T07:00:07.168Z,84.68
2022-10-31T07:04:09.486Z,83.50
2022-10-31T07:08:12.874Z,82.52
2022-10-31T07:12:16.551Z,82.91
2022-10-31T07:16:18.119Z,83.75
2022-10-31T07:20:19.791Z,84.36
2022-10-31T07:24:21.480Z,84.03
2022-10-31T07:28:25.067Z,84.50
2022-10-31T07:32:26.682Z,83.10
2022-10-31T07:36:28.232Z,83.13
2022-10-31T07:40:29.674Z,82.48
2022-10-31T07:44:32.395Z,81.82
2022-10-31T07:48:33.955Z,82.54
2022-10-31T07:52:35.541Z,82.40
2022-10-31T07:56:37.016Z,82.31
2022-10-31T08:00:42.252Z,82.52
2022-10-31T08:04:43.713Z,81.17
2022-10-31T08:08:45.168Z,80.93
2022-10-31T08:12:46.584Z,80.72
2022-10-31T08:16:49.330Z,80.86
2022-10-31T08:20:50.911Z,80.91
2022-10-31T08:24:52.270Z,79.65
2022-10-31T08:28:53.760Z,80.52
2022-10-31T08:33:01.290Z,80.83
2022-10-31T08:37:02.739Z,80.74
2022-10-31T08:41:04.197Z,79.62
2022-10-31T08:45:06.088Z,79.74
2022-10-31T08:49:09.054Z,78.67
2022-10-31T08:53:12.997Z,78.41
2022-10-31T08:57:14.419Z,77.47
2022-10-31T09:01:15.936Z,77.99
2022-10-31T09:05:18.979Z,76.85
2022-10-31T09:09:20.403Z,75.63
2022-10-31T09:13:24.165Z,75.56
2022-10-31T09:17:27.559Z,76.14
2022-10-31T09:21:30.338Z,75.69
2022-10-31T09:25:33.465Z,75.65
2022-10-31T09:29:34.911Z,75.27
2022-10-31T09:33:36.404Z,74.07
2022-10-31T09:37:39.149Z,73.34
2022-10-31T09:42:05.215Z,73.36
2022-10-31T09:46:15.864Z,72.30
2022-10-31T09:50:22.100Z,71.49
2022-10-31T09:54:29.534Z,70.68
2022-10-31T09:58:39.078Z,70.68
2022-10-31T10:02:45.657Z,70.73
2022-10-31T10:06:50.168Z,69.99
2022-10-31T10:11:00.017Z,66.95
2022-10-31T10:15:34.611Z,67.01
2022-10-31T10:19:58.377Z,64.46
2022-10-31T10:24:11.947Z,65.46
2022-10-31T10:28:21.177Z,67.01
2022-10-31T10:32:26.236Z,65.33
2022-10-31T10:36:34.473Z,64.58
2022-10-31T10:40:36.129Z,64.41
2022-10-31T10:44:43.083Z,63.17
2022-10-31T10:48:46.323Z,63.37
2022-10-31T10:52:53.900Z,63.69
2022-10-31T10:57:06.220Z,64.25
2022-10-31T11:01:12.938Z,64.36
2022-10-31T11:05:23.224Z,63.76
2022-10-31T11:09:24.793Z,62.61
2022-10-31T11:13:26.407Z,62.75
2022-10-31T11:17:32.825Z,60.37
2022-10-31T11:21:35.392Z,60.27
2022-10-31T11:25:37.020Z,59.34
2022-10-31T11:29:38.630Z,59.76
2022-10-31T11:33:47.389Z,59.61
2022-10-31T11:37:51.363Z,59.48
2022-10-31T11:41:54.921Z,58.20
2022-10-31T11:45:57.577Z,59.67
2022-10-31T11:50:03.091Z,58.75
2022-10-31T11:54:05.843Z,58.30
2022-10-31T11:58:21.591Z,58.12
2022-10-31T12:02:23.281Z,58.38
2022-10-31T12:06:32.584Z,58.67
2022-10-31T12:10:41.484Z,59.24
2022-10-31T12:14:56.214Z,59.92
2022-10-31T12:19:03.214Z,60.13
2022-10-31T12:23:14.024Z,60.37
2022-10-31T12:27:29.531Z,60.33
2022-10-31T12:31:44.851Z,59.50
2022-10-31T12:35:52.639Z,59.89
2022-10-31T12:40:08.131Z,60.37
2022-10-31T12:44:30.575Z,60.20
2022-10-31T12:48:57.130Z,60.48
2022-10-31T12:53:09.848Z,60.68
2022-10-31T12:57:22.172Z,60.51
2022-10-31T13:01:27.573Z,61.01
2022-10-31T13:05:33.312Z,60.90
2022-10-31T13:09:42.025Z,60.50
2022-10-31T13:13:51.399Z,60.87
2022-10-31T13:17:56.928Z,61.52
2022-10-31T13:22:04.277Z,62.32
2022-10-31T13:26:11.087Z,61.50
2022-10-31T13:30:17.636Z,61.42
2022-10-31T13:34:26.209Z,60.68
2022-10-31T13:38:34.299Z,61.27
2022-10-31T13:42:50.651Z,61.60
2022-10-31T13:46:54.516Z,60.78
2022-10-31T13:50:57.743Z,60.34
2022-10-31T13:54:59.173Z,59.88
2022-10-31T13:59:17.772Z,59.72
2022-10-31T14:03:36.139Z,59.65
2022-10-31T14:07:44.544Z,59.89
2022-10-31T14:11:47.872Z,59.74
2022-10-31T14:15:56.063Z,59.83
2022-10-31T14:20:01.259Z,60.03
2022-10-31T14:24:13.893Z,59.67
2022-10-31T14:28:31.883Z,59.07
2022-10-31T14:32:33.358Z,58.97
2022-10-31T14:36:44.707Z,59.16
2022-10-31T14:41:04.657Z,58.61
2022-10-31T14:45:24.920Z,58.66
2022-10-31T14:49:41.960Z,58.74
2022-10-31T14:53:49.027Z,58.33
2022-10-31T14:57:53.481Z,58.40
2022-10-31T15:01:59.845Z,58.50
2022-10-31T15:06:06.345Z,58.58
2022-10-31T15:10:22.249Z,58.33
2022-10-31T15:14:26.200Z,58.12
2022-10-31T15:18:28.921Z,58.49
2022-10-31T15:22:31.970Z,58.38
2022-10-31T15:26:39.985Z,58.82
2022-10-31T15:30:51.217Z,58.47
2022-10-31T15:34:54.359Z,58.67
2022-10-31T15:38:56.645Z,58.70
2022-10-31T15:43:02.714Z,58.73
2022-10-31T15:47:05.767Z,58.70
2022-10-31T15:51:07.264Z,58.71
2022-10-31T15:55:19.628Z,58.80
2022-10-31T15:59:25.566Z,59.20
2022-10-31T16:03:29.616Z,59.51
2022-10-31T16:07:31.543Z,59.70
2022-10-31T16:11:36.315Z,59.55
2022-10-31T16:15:49.181Z,59.94
2022-10-31T16:19:55.028Z,60.18
2022-10-31T16:24:03.784Z,60.01
2022-10-31T16:28:18.658Z,60.54
2022-10-31T16:32:35.130Z,60.35
2022-10-31T16:36:36.765Z,60.29
2022-10-31T16:40:39.839Z,59.91
2022-10-31T16:44:44.490Z,60.24
2022-10-31T16:48:47.714Z,60.23
2022-10-31T16:57:17.077Z,60.24
2022-10-31T17:01:19.397Z,60.17
2022-10-31T17:05:23.503Z,60.51
2022-10-31T17:09:25.093Z,60.72
2022-10-31T17:13:29.795Z,60.63
2022-10-31T17:17:31.183Z,60.79
2022-10-31T17:21:35.851Z,60.93
2022-10-31T17:25:37.798Z,61.00
2022-10-31T17:29:39.228Z,60.62
2022-10-31T17:33:40.637Z,60.64
2022-10-31T17:37:44.688Z,60.88
2022-10-31T17:41:49.716Z,61.00
2022-10-31T17:45:51.451Z,61.27
2022-10-31T17:49:53.322Z,60.94
2022-10-31T17:53:57.358Z,61.46
2022-10-31T17:57:58.931Z,61.01
2022-10-31T18:02:00.633Z,60.87
2022-10-31T18:06:02.215Z,60.99
2022-10-31T18:10:06.288Z,61.24
2022-10-31T18:14:09.383Z,61.53
2022-10-31T18:18:11.023Z,61.66
2022-10-31T18:22:12.686Z,61.71
2022-10-31T18:26:15.441Z,61.96
2022-10-31T18:30:17.129Z,62.42
2022-10-31T18:34:18.917Z,62.57
2022-10-31T18:38:20.676Z,62.95
2022-10-31T18:42:23.491Z,63.37
2022-10-31T18:46:25.011Z,63.52
2022-10-31T18:50:26.534Z,63.52
2022-10-31T18:54:27.975Z,63.56
2022-10-31T18:58:32.435Z,63.89
2022-10-31T19:02:33.985Z,64.07
2022-10-31T19:06:35.672Z,64.27
2022-10-31T19:10:38.206Z,64.65
2022-10-31T19:14:41.022Z,64.68
2022-10-31T19:18:43.324Z,65.23
2022-10-31T19:22:44.754Z,65.33
2022-10-31T19:26:46.351Z,65.36
2022-10-31T19:30:53.890Z,65.64
2022-10-31T19:34:55.284Z,65.21
2022-10-31T19:38:57.624Z,65.23
2022-10-31T19:42:59.054Z,65.31
2022-10-31T19:47:01.803Z,65.24
2022-10-31T19:51:05.234Z,65.24
2022-10-31T19:55:07.198Z,65.13
2022-10-31T19:59:08.696Z,64.76
2022-10-31T20:03:11.648Z,65.19
2022-10-31T20:07:13.650Z,65.21
2022-10-31T20:11:15.629Z,65.15
2022-10-31T20:15:17.391Z,65.13
2022-10-31T20:19:20.217Z,65.32
2022-10-31T20:23:21.988Z,65.68
2022-10-31T20:27:23.610Z,66.08
2022-10-31T20:31:27.443Z,65.93
2022-10-31T20:35:30.368Z,66.25
2022-10-31T20:39:32.026Z,65.94
2022-10-31T20:43:34.240Z,66.22
2022-10-31T20:47:35.943Z,65.98
2022-10-31T20:51:38.754Z,66.57
2022-10-31T20:55:40.468Z,66.50
2022-10-31T20:59:41.960Z,66.67
2022-10-31T21:03:44.435Z,66.03
2022-10-31T21:07:47.460Z,65.79
2022-10-31T21:11:49.053Z,65.11
2022-10-31T21:15:59.518Z,65.82
2022-10-31T21:20:00.938Z,66.78
2022-10-31T21:24:05.674Z,67.43
2022-10-31T21:28:08.391Z,66.96
2022-10-31T21:32:10.000Z,67.33
2022-10-31T21:36:12.198Z,67.54
2022-10-31T21:40:15.084Z,67.37
2022-10-31T21:44:16.636Z,67.55
2022-10-31T21:48:18.253Z,68.10
2022-10-31T21:52:19.789Z,67.78
2022-10-31T21:56:23.121Z,68.23
2022-10-31T22:00:24.552Z,68.62
2022-10-31T22:04:26.157Z,67.83
2022-10-31T22:08:28.338Z,68.26
2022-10-31T22:12:31.081Z,68.93
2022-10-31T22:16:35.100Z,68.81
2022-10-31T22:20:36.521Z,68.26
2022-10-31T22:24:38.114Z,67.73
2022-10-31T22:28:41.729Z,67.68
2022-10-31T22:32:43.180Z,67.55
2022-10-31T22:36:45.544Z,66.74
2022-10-31T22:40:47.060Z,65.04
2022-10-31T22:44:49.830Z,62.98
2022-10-31T22:48:54.052Z,62.72
2022-10-31T22:52:55.595Z,62.35
2022-10-31T22:56:57.213Z,61.59
2022-10-31T23:01:00.592Z,61.51
2022-10-31T23:05:02.272Z,61.82
2022-10-31T23:09:05.784Z,61.42
2022-10-31T23:13:08.724Z,61.45
2022-10-31T23:17:11.491Z,60.72
2022-10-31T23:21:13.288Z,60.07
2022-10-31T23:25:14.792Z,60.17
2022-10-31T23:29:16.236Z,59.84
2022-10-31T23:33:19.039Z,59.15
2022-10-31T23:37:22.578Z,58.93
2022-10-31T23:41:24.135Z,59.06
2022-10-31T23:45:25.608Z,59.24
2022-10-31T23:49:28.340Z,59.77
2022-10-31T23:53:29.862Z,59.46
2022-10-31T23:57:31.282Z,60.26
